createdAt,value
2019-03-08T00:01:10.354Z,99331.27
2019-03-08T00:03:43.730Z,99326.69
2019-03-08T00:06:18.362Z,99327.57
2019-03-08T00:08:51.875Z,99322.68
2019-03-08T00:11:27.393Z,99329.90
2019-03-08T00:14:02.042Z,99327.51
2019-03-08T00:16:36.774Z,99326.22
2019-03-08T00:19:11.929Z,99335.85
2019-03-08T00:21:45.147Z,99328.07
2019-03-08T00:24:18.558Z,99326.81
2019-03-08T00:26:51.898Z,99319.92
2019-03-08T00:29:26.099Z,99325.79
2019-03-08T00:31:59.422Z,99321.75
2019-03-08T00:34:37.511Z,99330.76
2019-03-08T00:37:11.682Z,99328.07
2019-03-08T00:39:45.303Z,99325.67
2019-03-08T00:42:18.728Z,99328.10
2019-03-08T00:44:55.606Z,99324.07
2019-03-08T00:47:28.995Z,99323.11
2019-03-08T00:50:02.291Z,99322.16
2019-03-08T00:52:35.589Z,99318.92
2019-03-08T00:55:11.671Z,99321.48
2019-03-08T00:57:44.991Z,99317.19
2019-03-08T01:00:27.481Z,99317.13
2019-03-08T01:03:00.939Z,99320.30
2019-03-08T01:05:34.391Z,99324.39
2019-03-08T01:08:09.391Z,99319.02
2019-03-08T01:10:42.584Z,99318.77
2019-03-08T01:13:15.814Z,99318.42
2019-03-08T01:15:49.341Z,99312.77
2019-03-08T01:18:22.706Z,99314.73
2019-03-08T01:20:56.383Z,99314.03
2019-03-08T01:23:29.741Z,99305.16
2019-03-08T01:26:05.077Z,99307.78
2019-03-08T01:28:38.493Z,99304.45
2019-03-08T01:31:11.777Z,99299.89
2019-03-08T01:33:45.167Z,99300.71
2019-03-08T01:36:18.620Z,99297.98
2019-03-08T01:38:52.043Z,99305.59
2019-03-08T01:41:26.529Z,99292.63
2019-03-08T01:43:59.950Z,99300.17
2019-03-08T01:46:33.397Z,99303.23
2019-03-08T01:49:08.309Z,99300.85
2019-03-08T01:51:42.012Z,99294.33
2019-03-08T01:54:15.246Z,99301.09
2019-03-08T01:56:48.544Z,99293.02
2019-03-08T01:59:21.803Z,99284.48
2019-03-08T02:01:55.419Z,99289.48
2019-03-08T02:04:28.771Z,99273.17
2019-03-08T02:07:02.137Z,99277.37
2019-03-08T02:09:38.065Z,99280.42
2019-03-08T02:12:11.670Z,99278.64
2019-03-08T02:14:45.075Z,99275.78
2019-03-08T02:17:20.850Z,99267.41
2019-03-08T02:19:53.217Z,99268.98
2019-03-08T02:22:26.955Z,99269.05
2019-03-08T02:25:00.372Z,99262.88
2019-03-08T02:27:39.072Z,99262.83
2019-03-08T02:30:16.887Z,99254.20
2019-03-08T02:32:50.550Z,99254.30
2019-03-08T02:35:24.302Z,99256.69
2019-03-08T02:37:57.719Z,99251.00
2019-03-08T02:40:38.285Z,99247.08
2019-03-08T02:43:17.154Z,99237.32
2019-03-08T02:45:51.977Z,99242.37
2019-03-08T02:48:25.273Z,99233.14
2019-03-08T02:51:00.169Z,99235.44
2019-03-08T02:53:33.622Z,99231.64
2019-03-08T02:56:09.350Z,99234.69
2019-03-08T02:58:43.089Z,99216.43
2019-03-08T03:01:16.510Z,99217.38
2019-03-08T03:03:50.470Z,99217.95
2019-03-08T03:06:23.774Z,99218.89
2019-03-08T03:08:58.090Z,99214.77
2019-03-08T03:11:32.009Z,99206.83
2019-03-08T03:14:12.425Z,99201.34
2019-03-08T03:16:45.800Z,99205.51
2019-03-08T03:19:23.064Z,99197.73
2019-03-08T03:22:02.882Z,99201.95
2019-03-08T03:24:41.967Z,99184.66
2019-03-08T03:27:09.022Z,99177.52
2019-03-08T03:29:42.353Z,99179.00
2019-03-08T03:32:15.626Z,99180.11
2019-03-08T03:34:48.898Z,99169.02
2019-03-08T03:37:23.210Z,99167.12
2019-03-08T03:39:58.513Z,99168.05
2019-03-08T03:42:33.810Z,99169.26
2019-03-08T03:45:09.404Z,99161.74
2019-03-08T03:47:42.810Z,99155.80
2019-03-08T03:50:18.338Z,99138.55
2019-03-08T03:52:53.445Z,99138.08
2019-03-08T03:55:28.174Z,99149.92
2019-03-08T03:58:01.799Z,99130.17
2019-03-08T04:00:35.103Z,99124.16
2019-03-08T04:03:10.182Z,99127.44
2019-03-08T04:05:43.446Z,99115.11
2019-03-08T04:08:16.766Z,99110.55
2019-03-08T04:10:51.781Z,99114.41
2019-03-08T04:13:25.229Z,99109.83
2019-03-08T04:15:59.976Z,99112.27
2019-03-08T04:18:33.401Z,99100.03
2019-03-08T04:21:06.573Z,99090.41
2019-03-08T04:23:39.912Z,99089.91
2019-03-08T04:26:13.334Z,99082.33
2019-03-08T04:28:46.622Z,99077.73
2019-03-08T04:31:19.875Z,99076.36
2019-03-08T04:33:53.516Z,99063.06
2019-03-08T04:36:30.356Z,99063.53
2019-03-08T04:39:03.667Z,99058.78
2019-03-08T04:41:38.233Z,99059.36
2019-03-08T04:44:11.851Z,99056.87
2019-03-08T04:46:46.648Z,99046.98
2019-03-08T04:49:21.490Z,99041.86
2019-03-08T04:51:54.772Z,99039.16
2019-03-08T04:54:29.731Z,99035.23
2019-03-08T04:57:02.950Z,99029.97
2019-03-08T04:59:36.225Z,99029.17
2019-03-08T05:02:09.666Z,99027.26
2019-03-08T05:04:43.128Z,99020.35
2019-03-08T05:07:16.414Z,99005.69
2019-03-08T05:09:49.679Z,98998.91
2019-03-08T05:12:23.033Z,99002.97
2019-03-08T05:14:58.263Z,99004.66
2019-03-08T05:17:31.619Z,98997.30
2019-03-08T05:20:05.554Z,98998.62
2019-03-08T05:22:40.595Z,99001.59
2019-03-08T05:25:15.158Z,98990.97
2019-03-08T05:27:48.593Z,98979.68
2019-03-08T05:30:22.253Z,98972.38
2019-03-08T05:32:55.514Z,98968.82
2019-03-08T05:35:29.039Z,98956.84
2019-03-08T05:38:03.191Z,98951.48
2019-03-08T05:40:36.777Z,98957.01
2019-03-08T05:43:10.693Z,98963.14
2019-03-08T05:45:45.369Z,98961.61
2019-03-08T05:48:18.647Z,98965.11
2019-03-08T05:50:51.945Z,98948.18
2019-03-08T05:53:25.745Z,98932.23
2019-03-08T05:55:59.634Z,98934.18
2019-03-08T05:58:33.222Z,98944.45
2019-03-08T06:01:06.400Z,98932.31
2019-03-08T06:03:39.708Z,98924.79
2019-03-08T06:06:13.035Z,98922.59
2019-03-08T06:08:46.282Z,98924.31
2019-03-08T06:11:19.617Z,98924.16
2019-03-08T06:13:54.632Z,98929.01
2019-03-08T06:16:28.946Z,98907.12
2019-03-08T06:19:03.260Z,98918.64
2019-03-08T06:21:36.561Z,98923.42
2019-03-08T06:24:10.282Z,98908.77
2019-03-08T06:26:43.686Z,98912.66
2019-03-08T06:29:18.262Z,98897.20
2019-03-08T06:31:51.758Z,98919.03
2019-03-08T06:34:25.348Z,98909.03
2019-03-08T06:36:58.780Z,98908.29
2019-03-08T06:39:34.255Z,98900.76
2019-03-08T06:42:09.802Z,98893.44
2019-03-08T06:44:43.097Z,98900.89
2019-03-08T06:47:16.587Z,98901.00
2019-03-08T06:49:49.928Z,98895.33
2019-03-08T06:52:23.628Z,98892.77
2019-03-08T06:55:01.232Z,98892.30
2019-03-08T06:57:34.503Z,98887.96
2019-03-08T07:00:10.331Z,98888.72
2019-03-08T07:02:44.192Z,98877.38
2019-03-08T07:05:17.514Z,98868.19
2019-03-08T07:07:52.007Z,98875.63
2019-03-08T07:10:26.949Z,98877.22
2019-03-08T07:13:03.537Z,98876.44
2019-03-08T07:15:35.004Z,98877.81
2019-03-08T07:18:12.574Z,98850.69
2019-03-08T07:20:43.038Z,98858.21
2019-03-08T07:23:16.321Z,98857.23
2019-03-08T07:25:52.601Z,98855.99
2019-03-08T07:28:24.182Z,98852.84
2019-03-08T07:30:58.207Z,98853.56
2019-03-08T07:33:31.527Z,98846.73
2019-03-08T07:36:06.719Z,98836.27
2019-03-08T07:38:40.231Z,98836.82
2019-03-08T07:41:13.811Z,98830.08
2019-03-08T07:43:47.200Z,98835.05
2019-03-08T07:46:20.761Z,98837.16
2019-03-08T07:48:54.316Z,98807.66
2019-03-08T07:51:27.629Z,98825.30
2019-03-08T07:54:01.316Z,98813.13
2019-03-08T07:56:35.801Z,98787.88
2019-03-08T07:59:09.578Z,98787.88
2019-03-08T08:01:42.911Z,98794.33
2019-03-08T08:04:19.341Z,98798.83
2019-03-08T08:07:01.230Z,98806.54
2019-03-08T08:09:53.761Z,98799.36
2019-03-08T08:12:27.666Z,98803.30
2019-03-08T08:15:01.145Z,98803.61
2019-03-08T08:17:38.195Z,98795.39
2019-03-08T08:20:16.342Z,98794.20
2019-03-08T08:22:47.700Z,98787.95
2019-03-08T08:25:21.223Z,98789.95
2019-03-08T08:27:54.615Z,98786.39
2019-03-08T08:30:29.490Z,98786.63
2019-03-08T08:33:03.060Z,98790.98
2019-03-08T08:35:36.320Z,98782.24
2019-03-08T08:38:12.838Z,98772.33
2019-03-08T08:40:46.395Z,98778.22
2019-03-08T08:43:20.137Z,98771.16
2019-03-08T08:45:55.107Z,98777.33
2019-03-08T08:48:29.777Z,98775.00
2019-03-08T08:51:03.153Z,98770.47
2019-03-08T08:53:36.507Z,98768.87
2019-03-08T08:56:10.594Z,98778.60
2019-03-08T08:58:44.044Z,98768.89
2019-03-08T09:01:17.398Z,98772.72
2019-03-08T09:03:51.380Z,98766.77
2019-03-08T09:06:26.718Z,98763.81
2019-03-08T09:09:00.207Z,98767.73
2019-03-08T09:11:43.800Z,98758.27
2019-03-08T09:14:10.577Z,98762.98
2019-03-08T09:16:45.992Z,98754.62
2019-03-08T09:19:20.981Z,98750.65
2019-03-08T09:21:54.659Z,98743.88
2019-03-08T09:24:29.764Z,98746.41
2019-03-08T09:27:03.403Z,98745.60
2019-03-08T09:29:41.225Z,98747.72
2019-03-08T09:32:16.586Z,98742.61
2019-03-08T09:34:53.156Z,98743.68
2019-03-08T09:37:29.827Z,98743.17
2019-03-08T09:40:05.107Z,98742.38
2019-03-08T09:42:38.891Z,98737.38
2019-03-08T09:45:13.521Z,98733.58
2019-03-08T09:47:48.056Z,98736.34
2019-03-08T09:50:27.199Z,98737.13
2019-03-08T09:53:02.673Z,98743.11
2019-03-08T09:55:38.860Z,98737.64
2019-03-08T09:58:13.848Z,98731.69
2019-03-08T10:00:48.091Z,98728.95
2019-03-08T10:03:21.701Z,98734.56
2019-03-08T10:05:57.076Z,98742.52
2019-03-08T10:08:32.803Z,98733.52
2019-03-08T10:11:07.014Z,98734.48
2019-03-08T10:13:41.493Z,98740.80
2019-03-08T10:16:17.983Z,98736.44
2019-03-08T10:18:54.113Z,98744.88
2019-03-08T10:21:28.282Z,98739.41
2019-03-08T10:24:04.217Z,98739.79
2019-03-08T10:26:39.816Z,98736.59
2019-03-08T10:29:15.106Z,98737.22
2019-03-08T10:31:49.054Z,98736.63
2019-03-08T10:34:25.541Z,98730.61
2019-03-08T10:37:01.218Z,98730.88
2019-03-08T10:39:38.105Z,98738.79
2019-03-08T10:42:13.202Z,98742.13
2019-03-08T10:44:50.125Z,98737.02
2019-03-08T10:47:31.181Z,98733.23
2019-03-08T10:50:10.336Z,98739.41
2019-03-08T10:52:51.523Z,98736.50
2019-03-08T10:55:25.874Z,98738.97
2019-03-08T10:58:01.684Z,98743.61
2019-03-08T11:00:38.788Z,98740.40
2019-03-08T11:03:15.789Z,98738.24
2019-03-08T11:05:51.021Z,98731.23
2019-03-08T11:08:29.709Z,98734.31
2019-03-08T11:11:06.576Z,98725.66
2019-03-08T11:13:45.550Z,98724.20
2019-03-08T11:16:25.052Z,98714.88
2019-03-08T11:19:08.458Z,98707.80
2019-03-08T11:21:37.091Z,98706.30
2019-03-08T11:24:13.225Z,98697.85
2019-03-08T11:26:48.018Z,98703.76
2019-03-08T11:29:22.324Z,98700.68
2019-03-08T11:31:56.567Z,98704.03
2019-03-08T11:34:32.707Z,98711.86
2019-03-08T11:37:07.727Z,98717.11
2019-03-08T11:39:42.193Z,98706.95
2019-03-08T11:42:16.599Z,98705.47
2019-03-08T11:44:51.073Z,98709.49
2019-03-08T11:47:25.427Z,98711.55
2019-03-08T11:50:00.038Z,98704.80
2019-03-08T11:52:34.755Z,98720.19
2019-03-08T11:55:10.769Z,98725.28
2019-03-08T11:57:45.152Z,98723.78
2019-03-08T12:00:20.104Z,98728.52
2019-03-08T12:02:54.879Z,98736.48
2019-03-08T12:05:29.333Z,98736.31
2019-03-08T12:08:05.130Z,98725.08
2019-03-08T12:10:41.430Z,98731.09
2019-03-08T12:13:16.721Z,98740.45
2019-03-08T12:15:57.056Z,98731.58
2019-03-08T12:18:34.279Z,98741.97
2019-03-08T12:21:09.512Z,98749.59
2019-03-08T12:23:49.159Z,98750.70
2019-03-08T12:26:24.689Z,98751.02
2019-03-08T12:28:59.235Z,98749.93
2019-03-08T12:31:33.380Z,98751.66
2019-03-08T12:34:07.757Z,98750.31
2019-03-08T12:36:42.764Z,98748.41
2019-03-08T12:39:18.360Z,98735.65
2019-03-08T12:41:54.177Z,98754.17
2019-03-08T12:44:28.859Z,98728.63
2019-03-08T12:47:04.123Z,98745.28
2019-03-08T12:49:38.575Z,98740.38
2019-03-08T12:52:17.719Z,98753.17
2019-03-08T12:54:52.226Z,98739.61
2019-03-08T12:57:26.318Z,98750.22
2019-03-08T13:00:00.519Z,98749.68
2019-03-08T13:02:35.156Z,98738.38
2019-03-08T13:05:10.111Z,98743.03
2019-03-08T13:07:46.564Z,98748.47
2019-03-08T13:10:22.311Z,98752.83
2019-03-08T13:12:56.972Z,98747.11
2019-03-08T13:15:31.492Z,98743.06
2019-03-08T13:18:06.169Z,98741.77
2019-03-08T13:20:40.326Z,98738.51
2019-03-08T13:23:16.874Z,98744.49
2019-03-08T13:25:51.143Z,98730.63
2019-03-08T13:28:29.616Z,98729.84
2019-03-08T13:31:04.288Z,98745.09
2019-03-08T13:33:38.903Z,98736.09
2019-03-08T13:36:13.153Z,98721.47
2019-03-08T13:38:47.176Z,98730.44
2019-03-08T13:41:21.204Z,98741.63
2019-03-08T13:43:55.892Z,98757.39
2019-03-08T13:46:29.915Z,98753.09
2019-03-08T13:49:04.457Z,98745.75
2019-03-08T13:51:39.024Z,98743.02
2019-03-08T13:54:15.214Z,98739.49
2019-03-08T13:56:49.325Z,98739.23
2019-03-08T13:59:23.601Z,98743.04
2019-03-08T14:01:58.056Z,98743.86
2019-03-08T14:04:32.388Z,98744.69
2019-03-08T14:07:06.165Z,98743.89
2019-03-08T14:09:42.319Z,98741.44
2019-03-08T14:12:16.419Z,98729.77
2019-03-08T14:14:52.068Z,98747.72
2019-03-08T14:17:29.649Z,98747.98
2019-03-08T14:20:03.713Z,98746.36
2019-03-08T14:22:39.019Z,98730.08
2019-03-08T14:25:14.179Z,98735.23
2019-03-08T14:27:49.702Z,98729.53
2019-03-08T14:30:26.741Z,98737.14
2019-03-08T14:33:01.535Z,98751.52
2019-03-08T14:35:34.227Z,98718.41
2019-03-08T14:38:09.696Z,98716.24
2019-03-08T14:40:43.410Z,98721.39
2019-03-08T14:43:17.881Z,98724.12
2019-03-08T14:45:51.804Z,98722.75
2019-03-08T14:48:29.463Z,98713.55
2019-03-08T14:51:09.211Z,98720.31
2019-03-08T14:53:41.956Z,98716.52
2019-03-08T14:56:15.425Z,98716.52
2019-03-08T14:58:48.715Z,98712.44
2019-03-08T15:01:22.014Z,98720.84
2019-03-08T15:03:56.597Z,98726.56
2019-03-08T15:06:30.054Z,98735.50
2019-03-08T15:09:03.659Z,98709.73
2019-03-08T15:11:37.467Z,98712.44
2019-03-08T15:14:12.523Z,98704.55
2019-03-08T15:16:46.195Z,98712.16
2019-03-08T15:19:21.122Z,98727.36
2019-03-08T15:21:54.356Z,98704.30
2019-03-08T15:24:27.820Z,98699.96
2019-03-08T15:27:01.414Z,98711.08
2019-03-08T15:29:36.845Z,98711.34
2019-03-08T15:32:10.821Z,98714.88
2019-03-08T15:34:44.288Z,98703.77
2019-03-08T15:37:18.219Z,98695.35
2019-03-08T15:39:51.774Z,98704.83
2019-03-08T15:42:25.345Z,98710.54
2019-03-08T15:45:01.813Z,98695.91
2019-03-08T15:47:36.224Z,98701.04
2019-03-08T15:50:09.859Z,98695.63
2019-03-08T15:52:43.399Z,98680.97
2019-03-08T15:55:18.223Z,98708.12
2019-03-08T15:57:51.741Z,98685.58
2019-03-08T16:00:25.666Z,98686.66
2019-03-08T16:02:59.000Z,98699.16
2019-03-08T16:05:32.317Z,98688.30
2019-03-08T16:08:08.155Z,98686.93
2019-03-08T16:10:41.681Z,98686.41
2019-03-08T16:13:17.197Z,98689.40
2019-03-08T16:15:50.553Z,98688.56
2019-03-08T16:18:23.825Z,98692.66
2019-03-08T16:20:57.035Z,98685.58
2019-03-08T16:23:30.383Z,98695.07
2019-03-08T16:26:03.683Z,98688.84
2019-03-08T16:28:37.056Z,98709.72
2019-03-08T16:31:10.156Z,98699.97
2019-03-08T16:33:43.099Z,98691.27
2019-03-08T16:36:16.040Z,98689.66
2019-03-08T16:38:48.992Z,98691.55
2019-03-08T16:41:22.053Z,98687.77
2019-03-08T16:43:55.037Z,98690.75
2019-03-08T16:46:29.247Z,98678.27
2019-03-08T16:49:02.735Z,98695.36
2019-03-08T16:51:36.640Z,98684.52
2019-03-08T16:54:09.665Z,98711.89
2019-03-08T16:56:44.706Z,98696.98
2019-03-08T16:59:17.972Z,98687.75
2019-03-08T17:01:51.270Z,98698.31
2019-03-08T17:04:24.628Z,98697.25
2019-03-08T17:06:57.953Z,98694.24
2019-03-08T17:09:36.017Z,98688.27
2019-03-08T17:12:07.683Z,98689.89
2019-03-08T17:14:40.932Z,98687.45
2019-03-08T17:17:17.386Z,98675.81
2019-03-08T17:19:52.727Z,98684.76
2019-03-08T17:22:26.036Z,98682.31
2019-03-08T17:24:59.336Z,98676.33
2019-03-08T17:27:32.851Z,98669.27
2019-03-08T17:30:07.345Z,98657.63
2019-03-08T17:32:40.664Z,98667.92
2019-03-08T17:35:14.374Z,98665.22
2019-03-08T17:37:48.719Z,98663.06
2019-03-08T17:40:21.945Z,98662.78
2019-03-08T17:42:57.069Z,98664.13
2019-03-08T17:45:30.317Z,98670.36
2019-03-08T17:48:03.642Z,98663.05
2019-03-08T17:50:38.304Z,98656.27
2019-03-08T17:53:14.193Z,98670.64
2019-03-08T17:55:47.574Z,98670.36
2019-03-08T17:58:21.171Z,98659.24
2019-03-08T18:00:54.635Z,98656.00
2019-03-08T18:03:27.905Z,98660.88
2019-03-08T18:06:01.556Z,98655.44
2019-03-08T18:08:36.694Z,98663.86
2019-03-08T18:11:11.094Z,98665.21
2019-03-08T18:13:44.593Z,98664.67
2019-03-08T18:16:17.932Z,98667.39
2019-03-08T18:18:51.235Z,98661.42
2019-03-08T18:21:27.673Z,98656.27
2019-03-08T18:24:01.047Z,98653.56
2019-03-08T18:26:34.426Z,98658.16
2019-03-08T18:29:11.856Z,98657.05
2019-03-08T18:31:43.574Z,98638.89
2019-03-08T18:34:16.949Z,98649.20
2019-03-08T18:36:50.538Z,98644.06
2019-03-08T18:39:23.957Z,98642.98
2019-03-08T18:41:57.457Z,98653.53
2019-03-08T18:44:31.181Z,98646.48
2019-03-08T18:47:04.561Z,98641.88
2019-03-08T18:49:38.710Z,98642.42
2019-03-08T18:52:12.058Z,98629.97
2019-03-08T18:54:45.538Z,98642.95
2019-03-08T18:57:19.028Z,98640.52
2019-03-08T18:59:52.506Z,98634.82
2019-03-08T19:02:27.227Z,98638.91
2019-03-08T19:05:00.492Z,98650.81
2019-03-08T19:07:35.350Z,98632.38
2019-03-08T19:10:10.859Z,98645.39
2019-03-08T19:12:44.142Z,98635.64
2019-03-08T19:15:17.723Z,98635.64
2019-03-08T19:17:51.148Z,98638.36
2019-03-08T19:20:26.213Z,98638.36
2019-03-08T19:23:01.116Z,98656.50
2019-03-08T19:25:34.499Z,98660.83
2019-03-08T19:28:09.078Z,98662.45
2019-03-08T19:30:42.562Z,98675.99
2019-03-08T19:33:16.055Z,98672.23
2019-03-08T19:35:49.342Z,98687.69
2019-03-08T19:38:22.581Z,98698.53
2019-03-08T19:40:56.069Z,98719.92
2019-03-08T19:43:29.314Z,98726.97
2019-03-08T19:46:02.658Z,98713.14
2019-03-08T19:48:35.961Z,98722.61
2019-03-08T19:51:09.611Z,98728.58
2019-03-08T19:53:44.296Z,98720.98
2019-03-08T19:56:17.650Z,98727.77
2019-03-08T19:58:50.987Z,98738.06
2019-03-08T20:01:24.217Z,98736.17
2019-03-08T20:03:57.402Z,98740.52
2019-03-08T20:06:30.759Z,98746.77
2019-03-08T20:09:04.081Z,98757.05
2019-03-08T20:11:37.615Z,98751.63
2019-03-08T20:14:11.132Z,98764.13
2019-03-08T20:16:44.466Z,98766.00
2019-03-08T20:19:19.075Z,98779.27
2019-03-08T20:21:52.557Z,98782.01
2019-03-08T20:24:26.034Z,98797.14
2019-03-08T20:26:59.337Z,98796.35
2019-03-08T20:29:33.181Z,98797.70
2019-03-08T20:32:06.726Z,98808.54
2019-03-08T20:34:40.067Z,98829.43
2019-03-08T20:37:13.375Z,98820.77
2019-03-08T20:39:48.687Z,98829.70
2019-03-08T20:42:21.989Z,98836.48
2019-03-08T20:44:55.336Z,98828.06
2019-03-08T20:47:28.638Z,98841.61
2019-03-08T20:50:01.919Z,98838.91
2019-03-08T20:52:35.180Z,98838.33
2019-03-08T20:55:10.742Z,98846.14
2019-03-08T20:57:43.987Z,98855.09
2019-03-08T21:00:21.226Z,98864.84
2019-03-08T21:02:54.740Z,98874.55
2019-03-08T21:05:27.932Z,98868.52
2019-03-08T21:08:01.292Z,98866.42
2019-03-08T21:10:35.059Z,98870.44
2019-03-08T21:13:08.355Z,98865.53
2019-03-08T21:15:41.634Z,98868.49
2019-03-08T21:18:14.979Z,98883.08
2019-03-08T21:20:48.598Z,98886.61
2019-03-08T21:23:21.854Z,98904.15
2019-03-08T21:25:55.122Z,98901.19
2019-03-08T21:28:28.385Z,98893.09
2019-03-08T21:31:02.081Z,98884.72
2019-03-08T21:33:35.523Z,98874.92
2019-03-08T21:36:08.949Z,98881.95
2019-03-08T21:38:42.227Z,98889.57
2019-03-08T21:41:15.739Z,98901.16
2019-03-08T21:43:49.106Z,98906.30
2019-03-08T21:46:22.360Z,98913.28
2019-03-08T21:48:55.613Z,98913.85
2019-03-08T21:51:29.319Z,98930.34
2019-03-08T21:54:02.654Z,98937.62
2019-03-08T21:56:36.017Z,98939.22
2019-03-08T21:59:09.333Z,98928.63
2019-03-08T22:01:42.602Z,98946.52
2019-03-08T22:04:15.882Z,98950.59
2019-03-08T22:06:49.185Z,98954.28
2019-03-08T22:09:22.477Z,98961.62
2019-03-08T22:11:55.845Z,98958.55
2019-03-08T22:14:29.186Z,98967.23
2019-03-08T22:17:03.777Z,98965.80
2019-03-08T22:19:37.167Z,98979.58
2019-03-08T22:22:10.991Z,98984.95
2019-03-08T22:24:44.399Z,98995.77
2019-03-08T22:27:17.774Z,98999.88
2019-03-08T22:29:51.044Z,99010.13
2019-03-08T22:32:24.321Z,99012.50
2019-03-08T22:34:57.689Z,99025.20
2019-03-08T22:37:32.427Z,99028.50
2019-03-08T22:40:05.901Z,99026.95
2019-03-08T22:42:40.046Z,99040.58
2019-03-08T22:45:14.527Z,99046.05
2019-03-08T22:47:47.907Z,99048.98
2019-03-08T22:50:22.786Z,99050.73
2019-03-08T22:52:56.196Z,99057.30
2019-03-08T22:55:29.528Z,99065.56
2019-03-08T22:58:04.562Z,99069.34
2019-03-08T23:00:54.994Z,99073.73
2019-03-08T23:03:29.023Z,99078.02
2019-03-08T23:06:02.273Z,99086.01
2019-03-08T23:08:38.235Z,99091.56
2019-03-08T23:11:11.883Z,99086.70
2019-03-08T23:13:45.211Z,99099.05
2019-03-08T23:16:18.742Z,99101.47
2019-03-08T23:18:52.408Z,99112.13
2019-03-08T23:21:27.047Z,99100.98
2019-03-08T23:24:02.336Z,99110.70
2019-03-08T23:26:35.886Z,99123.34
2019-03-08T23:29:09.191Z,99122.25
2019-03-08T23:31:42.653Z,99137.95
2019-03-08T23:34:16.096Z,99136.06
2019-03-08T23:36:49.686Z,99140.11
2019-03-08T23:39:24.822Z,99141.10
2019-03-08T23:41:59.370Z,99145.27
2019-03-08T23:44:34.320Z,99149.16
2019-03-08T23:47:08.624Z,99155.37
2019-03-08T23:49:43.420Z,99159.00
2019-03-08T23:52:17.123Z,99160.03
2019-03-08T23:54:51.216Z,99166.29
2019-03-08T23:57:34.000Z,99173.21
